Disclaimer

Please do not use the information listed here in-flight or in-navigation, as they are not provided to us by the airports but are provided by volunteers, so they might be outdated.

Search


Regions


Airport information page

No radio frequency information is available.

Airport informations:
Latitude: 48° 58' 55.71" N
Longitude: 006° 15' 04.75" E
Elevation: 870 feet - 265 meters
Operating hours: 24 hour operations
Operating agency: Civil government, landing fees and diplomatic clearance may be required
Timezone: UTC+1(+2DT) - Last Sunday in March to last Sunday in October
Fuel: Jet A1+, Jet A1 with icing inhibitor.

Runway information:
04/22 - 10007 x 148 feet< - >3050 x 45 meters

Recent METARs:
LFJL 170800Z AUTO 07016KT CAVOK 03/00 Q1025 NOSIG
LFJL 170830Z AUTO 07015KT CAVOK 03/01 Q1025 TEMPO 08015G25KT
LFJL 170900Z AUTO 07015KT CAVOK 04/01 Q1026 TEMPO 08015G25KT

Airport on the map: